createdAt,value
2023-04-28T00:02:57.031Z,2.28
2023-04-28T00:07:59.168Z,2.28
2023-04-28T00:13:02.288Z,3.15
2023-04-28T00:18:04.435Z,2.92
2023-04-28T00:23:06.631Z,3.42
2023-04-28T00:28:08.803Z,3.55
2023-04-28T00:33:11.052Z,3.38
2023-04-28T00:38:13.182Z,3.25
2023-04-28T00:43:15.236Z,3.45
2023-04-28T00:48:17.942Z,3.72
2023-04-28T00:53:20.278Z,3.60
2023-04-28T00:58:22.403Z,3.75
2023-04-28T01:03:25.382Z,3.63
2023-04-28T01:08:36.112Z,3.67
2023-04-28T01:13:41.066Z,3.80
2023-04-28T01:18:48.268Z,3.35
2023-04-28T01:23:51.192Z,3.63
2023-04-28T01:28:53.744Z,4.53
2023-04-28T01:33:56.011Z,4.22
2023-04-28T01:38:58.218Z,4.10
2023-04-28T01:44:00.904Z,3.83
2023-04-28T01:49:03.049Z,4.25
2023-04-28T01:54:05.149Z,4.38
2023-04-28T01:59:07.197Z,4.15
2023-04-28T02:04:10.036Z,3.72
2023-04-28T02:09:13.254Z,3.55
2023-04-28T02:14:15.517Z,3.50
2023-04-28T02:19:17.811Z,2.90
2023-04-28T02:24:19.871Z,3.05
2023-04-28T02:29:22.149Z,2.50
2023-04-28T02:34:24.218Z,2.40
2023-04-28T02:39:27.262Z,2.33
2023-04-28T02:44:31.986Z,2.58
2023-04-28T02:49:34.245Z,2.80
2023-04-28T02:54:37.401Z,2.65
2023-04-28T02:59:40.246Z,3.25
2023-04-28T03:04:42.497Z,2.92
2023-04-28T03:09:46.327Z,3.08
2023-04-28T03:14:48.387Z,3.17
2023-04-28T03:19:51.430Z,3.33
2023-04-28T03:24:53.662Z,2.83
2023-04-28T03:29:56.075Z,2.97
2023-04-28T03:34:58.136Z,3.35
2023-04-28T03:40:00.269Z,3.55
2023-04-28T03:45:03.846Z,3.22
2023-04-28T03:50:08.079Z,2.58
2023-04-28T03:55:10.909Z,2.53
2023-04-28T04:00:13.710Z,2.70
2023-04-28T04:05:18.723Z,2.58
2023-04-28T04:10:21.059Z,3.58
2023-04-28T04:15:24.665Z,4.22
2023-04-28T04:20:26.712Z,3.75
2023-04-28T04:25:28.910Z,4.43
2023-04-28T04:30:31.432Z,4.70
2023-04-28T04:35:34.127Z,3.47
2023-04-28T04:40:36.806Z,3.45
2023-04-28T04:45:39.501Z,3.50
2023-04-28T04:50:42.633Z,3.33
2023-04-28T04:55:44.867Z,2.80
2023-04-28T05:00:46.985Z,3.10
2023-04-28T05:05:49.693Z,3.03
2023-04-28T05:11:04.934Z,3.40
2023-04-28T05:16:07.381Z,3.42
2023-04-28T05:21:20.271Z,3.20
2023-04-28T05:26:24.188Z,2.90
2023-04-28T05:31:30.141Z,3.45
2023-04-28T05:36:33.042Z,4.20
2023-04-28T05:41:38.290Z,3.65
2023-04-28T05:46:41.144Z,2.92
2023-04-28T05:51:44.614Z,2.80
2023-04-28T05:56:46.956Z,2.78
2023-04-28T06:01:50.832Z,3.00
2023-04-28T06:06:53.104Z,2.50
2023-04-28T06:11:56.035Z,2.50
2023-04-28T06:16:58.298Z,2.30
2023-04-28T06:22:00.458Z,2.70
2023-04-28T06:27:02.895Z,2.75
2023-04-28T06:32:05.249Z,2.85
2023-04-28T06:37:07.381Z,3.20
2023-04-28T06:42:09.503Z,2.40
2023-04-28T06:47:14.866Z,3.38
2023-04-28T06:52:17.042Z,2.65
2023-04-28T06:57:19.673Z,2.22
2023-04-28T07:02:21.907Z,2.33
2023-04-28T07:07:24.018Z,2.13
2023-04-28T07:12:26.241Z,1.80
2023-04-28T07:17:28.301Z,1.83
2023-04-28T07:22:30.469Z,1.70
2023-04-28T07:27:32.516Z,1.48
2023-04-28T07:32:34.595Z,1.45
2023-04-28T07:37:37.719Z,1.30
2023-04-28T07:42:39.849Z,1.75
2023-04-28T07:47:42.462Z,1.45
2023-04-28T07:52:44.591Z,1.70
2023-04-28T07:57:46.628Z,2.40
2023-04-28T08:02:48.758Z,1.60
2023-04-28T08:07:50.927Z,1.80
2023-04-28T08:12:53.687Z,2.22
2023-04-28T08:17:55.868Z,2.53
2023-04-28T08:22:58.125Z,1.80
2023-04-28T08:28:00.196Z,2.00
2023-04-28T08:33:02.252Z,2.00
2023-04-28T08:38:04.636Z,2.13
2023-04-28T08:43:08.093Z,2.58
2023-04-28T08:48:21.590Z,2.85
2023-04-28T08:53:27.567Z,2.67
2023-04-28T08:58:29.572Z,2.83
2023-04-28T09:03:35.167Z,2.92
2023-04-28T09:08:37.327Z,2.20
2023-04-28T09:13:40.220Z,2.67
2023-04-28T09:18:57.244Z,2.65
2023-04-28T09:23:59.274Z,2.33
2023-04-28T09:29:13.898Z,2.00
2023-04-28T09:34:16.217Z,1.90
2023-04-28T09:39:30.537Z,2.33
2023-04-28T09:44:32.796Z,2.25
2023-04-28T09:49:55.113Z,2.17
2023-04-28T09:54:57.645Z,2.00
2023-04-28T10:00:00.425Z,2.00
2023-04-28T10:05:03.544Z,2.00
2023-04-28T10:10:07.830Z,1.52
2023-04-28T10:15:10.779Z,1.63
2023-04-28T10:20:16.001Z,1.77
2023-04-28T10:25:35.271Z,1.50
2023-04-28T10:30:38.173Z,1.65
2023-04-28T10:35:44.384Z,1.67
2023-04-28T10:40:54.310Z,1.67
2023-04-28T10:46:01.832Z,1.17
2023-04-28T10:51:09.265Z,1.52
2023-04-28T10:56:12.580Z,1.40
2023-04-28T11:01:29.886Z,1.58
2023-04-28T11:06:40.025Z,1.77
2023-04-28T11:12:00.215Z,2.00
2023-04-28T11:17:04.270Z,2.03
2023-04-28T11:22:16.208Z,1.92
2023-04-28T11:27:24.838Z,2.35
2023-04-28T11:32:28.547Z,3.60
2023-04-28T11:37:30.895Z,2.05
2023-04-28T11:42:34.010Z,2.05
2023-04-28T11:47:39.683Z,1.88
2023-04-28T11:52:53.582Z,1.85
2023-04-28T11:58:25.283Z,2.30
2023-04-28T12:03:27.539Z,1.75
2023-04-28T12:08:30.079Z,2.60
2023-04-28T12:13:32.124Z,2.10
2023-04-28T12:18:35.865Z,1.88
2023-04-28T12:23:38.830Z,1.80
2023-04-28T12:28:44.318Z,1.75
2023-04-28T12:33:46.403Z,1.80
2023-04-28T12:38:49.598Z,2.10
2023-04-28T12:43:52.088Z,1.83
2023-04-28T12:48:54.119Z,1.75
2023-04-28T12:53:56.145Z,2.08
2023-04-28T12:58:58.244Z,1.70
2023-04-28T13:04:00.427Z,1.63
2023-04-28T13:09:04.156Z,1.10
2023-04-28T13:14:06.247Z,1.40
2023-04-28T13:19:10.776Z,1.02
2023-04-28T13:24:13.879Z,1.50
2023-04-28T13:29:16.189Z,1.70
2023-04-28T13:34:18.984Z,1.40
2023-04-28T13:39:22.200Z,1.35
2023-04-28T13:44:24.426Z,1.48
2023-04-28T13:49:26.453Z,1.67
2023-04-28T13:54:28.861Z,1.40
2023-04-28T13:59:31.102Z,1.50
2023-04-28T14:04:33.349Z,1.35
2023-04-28T14:09:35.487Z,1.63
2023-04-28T14:14:40.178Z,1.70
2023-04-28T14:19:42.466Z,1.50
2023-04-28T14:24:44.654Z,1.20
2023-04-28T14:29:50.170Z,1.05
2023-04-28T14:34:52.260Z,1.15
2023-04-28T14:39:54.346Z,1.20
2023-04-28T14:44:56.838Z,1.05
2023-04-28T14:49:59.178Z,1.20
2023-04-28T14:55:03.166Z,1.00
2023-04-28T15:00:08.104Z,1.00
2023-04-28T15:05:14.345Z,1.15
2023-04-28T15:10:16.565Z,1.50
2023-04-28T15:15:18.651Z,1.30
2023-04-28T15:20:23.225Z,1.40
2023-04-28T15:25:26.180Z,1.05
2023-04-28T15:30:28.225Z,1.13
2023-04-28T15:35:32.362Z,1.40
2023-04-28T15:40:34.520Z,1.50
2023-04-28T15:45:37.669Z,1.38
2023-04-28T15:50:40.206Z,1.27
2023-04-28T15:55:42.366Z,1.10
2023-04-28T16:00:46.189Z,1.02
2023-04-28T16:05:48.363Z,0.93
2023-04-28T16:10:51.466Z,0.80
2023-04-28T16:15:54.124Z,0.88
2023-04-28T16:20:56.129Z,0.93
2023-04-28T16:25:58.156Z,1.00
2023-04-28T16:31:00.187Z,0.80
2023-04-28T16:36:02.218Z,1.10
2023-04-28T16:41:04.383Z,1.15
2023-04-28T16:46:07.521Z,1.20
2023-04-28T16:51:11.023Z,0.70
2023-04-28T16:56:13.080Z,0.70
2023-04-28T17:01:15.253Z,1.00
2023-04-28T17:06:17.293Z,0.70
2023-04-28T17:11:19.431Z,0.88
2023-04-28T17:16:21.904Z,1.17
2023-04-28T17:21:29.096Z,1.30
2023-04-28T17:26:32.325Z,1.10
2023-04-28T17:31:35.677Z,0.98
2023-04-28T17:36:38.964Z,1.05
2023-04-28T17:41:41.918Z,1.00
2023-04-28T17:46:44.028Z,1.00
2023-04-28T17:51:46.217Z,0.73
2023-04-28T17:56:48.279Z,0.90
2023-04-28T18:01:50.472Z,0.80
2023-04-28T18:06:52.572Z,1.20
2023-04-28T18:11:55.729Z,2.55
2023-04-28T18:16:58.706Z,1.35
2023-04-28T18:22:00.906Z,1.08
2023-04-28T18:27:02.970Z,1.13
2023-04-28T18:32:05.029Z,1.13
2023-04-28T18:37:07.233Z,0.73
2023-04-28T18:42:10.088Z,1.17
2023-04-28T18:47:12.825Z,1.30
2023-04-28T18:52:15.064Z,1.20
2023-04-28T18:57:17.316Z,1.00
2023-04-28T19:02:19.389Z,0.80
2023-04-28T19:07:23.978Z,1.10
2023-04-28T19:12:26.000Z,1.30
2023-04-28T19:17:28.610Z,1.27
2023-04-28T19:22:41.017Z,0.90
2023-04-28T19:27:44.035Z,1.30
2023-04-28T19:32:46.110Z,1.30
2023-04-28T19:37:49.842Z,1.70
2023-04-28T19:42:52.167Z,1.70
2023-04-28T19:47:55.581Z,1.95
2023-04-28T19:52:57.766Z,2.15
2023-04-28T19:58:01.102Z,2.30
2023-04-28T20:03:03.308Z,1.83
2023-04-28T20:08:05.427Z,2.85
2023-04-28T20:13:07.708Z,2.47
2023-04-28T20:18:09.929Z,2.45
2023-04-28T20:23:12.125Z,1.40
2023-04-28T20:28:14.338Z,1.35
2023-04-28T20:33:17.295Z,1.30
2023-04-28T20:38:19.866Z,1.35
2023-04-28T20:43:24.084Z,1.30
2023-04-28T20:48:26.169Z,1.20
2023-04-28T20:53:28.271Z,1.48
2023-04-28T20:58:31.539Z,1.30
2023-04-28T21:03:33.690Z,1.38
2023-04-28T21:08:35.924Z,1.38
2023-04-28T21:13:38.085Z,1.48
2023-04-28T21:18:40.124Z,2.50
2023-04-28T21:23:42.801Z,5.13
2023-04-28T21:28:44.804Z,6.28
2023-04-28T21:33:46.899Z,2.38
2023-04-28T21:38:49.102Z,1.30
2023-04-28T21:43:51.577Z,1.08
2023-04-28T21:48:53.594Z,1.20
2023-04-28T21:53:55.665Z,1.50
2023-04-28T21:58:57.793Z,1.10
2023-04-28T22:04:02.383Z,0.90
2023-04-28T22:09:05.054Z,0.98
2023-04-28T22:14:07.642Z,1.38
2023-04-28T22:19:09.789Z,1.10
2023-04-28T22:24:12.849Z,1.40
2023-04-28T22:29:15.261Z,2.17
2023-04-28T22:34:18.115Z,2.47
2023-04-28T22:39:20.181Z,2.60
2023-04-28T22:44:22.245Z,2.22
2023-04-28T22:49:28.409Z,2.80
2023-04-28T22:54:34.614Z,2.50
2023-04-28T22:59:36.657Z,3.10
2023-04-28T23:04:38.769Z,2.42
2023-04-28T23:09:40.911Z,2.67
2023-04-28T23:14:42.951Z,3.00
2023-04-28T23:19:45.216Z,2.63
2023-04-28T23:24:47.237Z,2.50
2023-04-28T23:29:49.482Z,2.40
2023-04-28T23:34:51.940Z,2.88
2023-04-28T23:39:54.042Z,2.35
2023-04-28T23:44:56.113Z,2.08
2023-04-28T23:49:58.206Z,2.13
2023-04-28T23:55:00.453Z,1.80
